createdAt,value
2018-06-09T00:00:40.916Z,69.73
2018-06-09T00:03:09.821Z,66.87
2018-06-09T00:05:38.773Z,67.03
2018-06-09T00:08:11.319Z,71.10
2018-06-09T00:10:40.287Z,68.93
2018-06-09T00:13:09.266Z,70.63
2018-06-09T00:15:38.198Z,66.60
2018-06-09T00:18:07.097Z,65.97
2018-06-09T00:20:36.029Z,66.03
2018-06-09T00:23:05.017Z,68.27
2018-06-09T00:25:33.983Z,64.30
2018-06-09T00:28:02.994Z,63.63
2018-06-09T00:30:31.948Z,65.70
2018-06-09T00:33:00.882Z,67.50
2018-06-09T00:35:29.820Z,67.17
2018-06-09T00:37:58.856Z,70.00
2018-06-09T00:40:27.766Z,62.23
2018-06-09T00:42:56.700Z,64.43
2018-06-09T00:45:25.611Z,67.90
2018-06-09T00:47:54.538Z,70.50
2018-06-09T00:50:23.448Z,64.23
2018-06-09T00:52:52.379Z,65.60
2018-06-09T00:55:21.301Z,65.97
2018-06-09T00:57:53.993Z,63.30
2018-06-09T01:00:23.051Z,66.47
2018-06-09T01:02:51.993Z,69.70
2018-06-09T01:05:20.903Z,63.87
2018-06-09T01:07:49.848Z,64.83
2018-06-09T01:10:18.944Z,64.83
2018-06-09T01:12:48.741Z,60.27
2018-06-09T01:15:17.680Z,63.00
2018-06-09T01:17:46.583Z,62.30
2018-06-09T01:20:15.607Z,63.63
2018-06-09T01:22:44.549Z,67.43
2018-06-09T01:25:13.451Z,56.37
2018-06-09T01:27:42.361Z,59.00
2018-06-09T01:30:11.314Z,59.53
2018-06-09T01:32:40.241Z,68.00
2018-06-09T01:35:09.185Z,64.87
2018-06-09T01:37:38.129Z,62.33
2018-06-09T01:40:07.041Z,67.87
2018-06-09T01:42:35.947Z,62.93
2018-06-09T01:45:05.149Z,66.10
2018-06-09T01:47:34.031Z,66.53
2018-06-09T01:50:02.990Z,62.47
2018-06-09T01:52:31.891Z,63.60
2018-06-09T01:55:00.813Z,62.90
2018-06-09T01:57:29.744Z,57.10
2018-06-09T01:59:58.997Z,55.77
2018-06-09T02:02:27.902Z,62.87
2018-06-09T02:04:56.817Z,56.87
2018-06-09T02:07:25.738Z,58.53
2018-06-09T02:09:54.651Z,59.87
2018-06-09T02:12:23.570Z,59.33
2018-06-09T02:14:52.509Z,55.37
2018-06-09T02:17:21.729Z,54.30
2018-06-09T02:19:50.668Z,56.23
2018-06-09T02:22:20.036Z,56.83
2018-06-09T02:24:48.953Z,55.40
2018-06-09T02:27:17.878Z,57.63
2018-06-09T02:29:46.804Z,55.73
2018-06-09T02:32:15.756Z,54.30
2018-06-09T02:34:44.687Z,56.40
2018-06-09T02:37:13.612Z,61.17
2018-06-09T02:39:42.549Z,55.63
2018-06-09T02:42:11.447Z,55.97
2018-06-09T02:44:40.585Z,55.00
2018-06-09T02:47:09.473Z,56.50
2018-06-09T02:49:38.398Z,53.67
2018-06-09T02:52:07.324Z,52.80
2018-06-09T02:54:36.272Z,55.87
2018-06-09T02:57:05.194Z,59.30
2018-06-09T02:59:34.083Z,53.80
2018-06-09T03:02:03.380Z,55.87
2018-06-09T03:04:32.304Z,55.30
2018-06-09T03:07:01.283Z,57.53
2018-06-09T03:09:30.463Z,55.13
2018-06-09T03:11:59.426Z,58.23
2018-06-09T03:14:28.363Z,54.77
2018-06-09T03:16:57.274Z,54.23
2018-06-09T03:19:26.207Z,54.57
2018-06-09T03:21:55.139Z,52.77
2018-06-09T03:24:24.068Z,54.43
2018-06-09T03:26:52.979Z,52.60
2018-06-09T03:29:22.094Z,51.77
2018-06-09T03:31:51.041Z,50.77
2018-06-09T03:34:19.953Z,53.60
2018-06-09T03:36:48.888Z,52.27
2018-06-09T03:39:17.875Z,51.93
2018-06-09T03:41:47.098Z,51.77
2018-06-09T03:44:15.997Z,51.17
2018-06-09T03:46:44.915Z,52.50
2018-06-09T03:49:13.988Z,45.60
2018-06-09T03:51:42.898Z,53.13
2018-06-09T03:54:11.804Z,50.27
2018-06-09T03:56:40.740Z,49.77
2018-06-09T03:59:09.684Z,53.50
2018-06-09T04:01:38.610Z,49.10
2018-06-09T04:04:07.675Z,50.33
2018-06-09T04:06:36.583Z,52.00
2018-06-09T04:09:07.725Z,51.20
2018-06-09T04:11:36.731Z,53.07
2018-06-09T04:14:05.653Z,51.60
2018-06-09T04:16:35.487Z,50.60
2018-06-09T04:19:04.426Z,49.27
2018-06-09T04:21:33.330Z,47.10
2018-06-09T04:24:02.273Z,50.40
2018-06-09T04:26:31.202Z,46.40
2018-06-09T04:29:00.140Z,47.10
2018-06-09T04:31:29.661Z,48.70
2018-06-09T04:33:58.753Z,48.20
2018-06-09T04:36:27.675Z,45.20
2018-06-09T04:38:56.616Z,41.13
2018-06-09T04:41:25.556Z,47.60
2018-06-09T04:43:54.480Z,41.73
2018-06-09T04:46:23.372Z,41.13
2018-06-09T04:48:52.311Z,40.93
2018-06-09T04:51:21.256Z,43.47
2018-06-09T04:53:50.193Z,42.30
2018-06-09T04:56:19.118Z,40.20
2018-06-09T04:58:48.037Z,35.80
2018-06-09T05:01:17.009Z,38.60
2018-06-09T05:03:45.920Z,36.37
2018-06-09T05:06:14.877Z,36.43
2018-06-09T05:08:43.816Z,37.47
2018-06-09T05:11:12.722Z,43.07
2018-06-09T05:13:41.631Z,37.93
2018-06-09T05:16:10.589Z,38.50
2018-06-09T05:18:39.552Z,36.20
2018-06-09T05:21:08.488Z,34.37
2018-06-09T05:23:37.428Z,32.77
2018-06-09T05:26:06.360Z,39.20
2018-06-09T05:28:35.293Z,32.03
2018-06-09T05:31:04.215Z,33.43
2018-06-09T05:33:33.149Z,30.30
2018-06-09T05:36:02.054Z,29.97
2018-06-09T05:38:30.982Z,34.63
2018-06-09T05:40:59.886Z,28.23
2018-06-09T05:43:28.911Z,30.50
2018-06-09T05:45:57.849Z,31.47
2018-06-09T05:48:27.194Z,31.93
2018-06-09T05:50:56.144Z,33.67
2018-06-09T05:53:25.057Z,30.90
2018-06-09T05:55:53.986Z,29.30
2018-06-09T05:58:22.883Z,31.90
2018-06-09T06:00:51.818Z,29.73
2018-06-09T06:03:26.738Z,33.20
2018-06-09T06:05:55.669Z,27.50
2018-06-09T06:08:24.636Z,29.40
2018-06-09T06:10:53.514Z,33.30
2018-06-09T06:13:22.446Z,25.40
2018-06-09T06:15:51.374Z,29.00
2018-06-09T06:18:20.318Z,26.53
2018-06-09T06:20:49.264Z,28.23
2018-06-09T06:23:18.178Z,27.00
2018-06-09T06:25:47.106Z,26.90
2018-06-09T06:28:16.030Z,29.20
2018-06-09T06:30:45.458Z,27.33
2018-06-09T06:33:15.032Z,27.80
2018-06-09T06:35:44.068Z,25.43
2018-06-09T06:38:13.002Z,28.23
2018-06-09T06:40:41.949Z,25.90
2018-06-09T06:43:10.856Z,26.37
2018-06-09T06:45:39.818Z,25.83
2018-06-09T06:48:08.732Z,24.07
2018-06-09T06:50:37.668Z,24.30
2018-06-09T06:53:06.620Z,27.27
2018-06-09T06:55:35.582Z,24.13
2018-06-09T06:58:04.496Z,30.03
2018-06-09T07:00:33.433Z,27.37
2018-06-09T07:03:02.377Z,26.03
2018-06-09T07:05:31.302Z,26.77
2018-06-09T07:08:00.259Z,26.87
2018-06-09T07:10:29.123Z,23.20
2018-06-09T07:12:58.076Z,27.73
2018-06-09T07:15:27.035Z,24.40
2018-06-09T07:17:55.964Z,28.60
2018-06-09T07:20:24.907Z,25.80
2018-06-09T07:22:53.822Z,23.27
2018-06-09T07:25:22.759Z,22.57
2018-06-09T07:27:51.692Z,30.50
2018-06-09T07:30:20.631Z,27.07
2018-06-09T07:32:49.595Z,22.93
2018-06-09T07:35:18.520Z,31.10
2018-06-09T07:37:47.469Z,25.70
2018-06-09T07:40:16.420Z,27.93
2018-06-09T07:42:45.344Z,28.60
2018-06-09T07:45:14.264Z,24.60
2018-06-09T07:47:43.169Z,30.17
2018-06-09T07:50:12.084Z,28.07
2018-06-09T07:52:41.046Z,26.40
2018-06-09T07:55:09.923Z,27.17
2018-06-09T07:57:42.681Z,30.00
2018-06-09T08:00:15.568Z,29.87
2018-06-09T08:02:44.578Z,26.97
2018-06-09T08:05:13.496Z,30.97
2018-06-09T08:07:42.438Z,28.90
2018-06-09T08:10:11.344Z,28.07
2018-06-09T08:12:40.273Z,31.13
2018-06-09T08:15:09.214Z,33.60
2018-06-09T08:17:38.112Z,26.93
2018-06-09T08:20:07.128Z,31.40
2018-06-09T08:22:36.050Z,34.10
2018-06-09T08:25:05.041Z,30.00
2018-06-09T08:27:33.991Z,31.50
2018-06-09T08:30:02.922Z,29.23
2018-06-09T08:32:31.894Z,29.97
2018-06-09T08:35:00.788Z,30.03
2018-06-09T08:37:30.595Z,30.10
2018-06-09T08:39:59.540Z,30.43
2018-06-09T08:42:28.475Z,33.53
2018-06-09T08:44:57.422Z,34.13
2018-06-09T08:47:26.342Z,35.53
2018-06-09T08:49:55.276Z,33.33
2018-06-09T08:52:24.337Z,34.20
2018-06-09T08:54:55.268Z,31.47
2018-06-09T08:57:24.203Z,31.50
2018-06-09T08:59:53.124Z,34.17
2018-06-09T09:02:22.080Z,30.00
2018-06-09T09:04:51.025Z,32.03
2018-06-09T09:07:19.923Z,33.97
2018-06-09T09:09:48.857Z,36.93
2018-06-09T09:12:21.588Z,31.03
2018-06-09T09:14:50.499Z,33.43
2018-06-09T09:17:19.501Z,29.87
2018-06-09T09:19:48.727Z,31.07
2018-06-09T09:22:17.652Z,34.13
2018-06-09T09:24:46.566Z,30.47
2018-06-09T09:27:15.501Z,30.33
2018-06-09T09:29:44.433Z,31.50
2018-06-09T09:32:13.640Z,32.70
2018-06-09T09:34:42.492Z,36.87
2018-06-09T09:37:11.454Z,37.80
2018-06-09T09:39:40.365Z,32.03
2018-06-09T09:42:09.267Z,34.43
2018-06-09T09:44:38.183Z,31.40
2018-06-09T09:47:07.092Z,38.73
2018-06-09T09:49:36.018Z,37.03
2018-06-09T09:52:04.984Z,36.37
2018-06-09T09:54:33.916Z,39.33
2018-06-09T09:57:02.867Z,33.07
2018-06-09T09:59:31.992Z,34.27
2018-06-09T10:02:00.919Z,44.50
2018-06-09T10:04:29.820Z,32.97
2018-06-09T10:06:58.767Z,30.73
2018-06-09T10:09:27.695Z,30.77
2018-06-09T10:11:56.622Z,32.63
2018-06-09T10:14:25.563Z,36.27
2018-06-09T10:16:54.456Z,35.90
2018-06-09T10:19:23.496Z,31.97
2018-06-09T10:21:52.459Z,32.63
2018-06-09T10:24:21.419Z,33.53
2018-06-09T10:26:50.337Z,28.17
2018-06-09T10:29:19.422Z,41.50
2018-06-09T10:31:48.318Z,28.23
2018-06-09T10:34:17.244Z,39.33
2018-06-09T10:36:46.151Z,33.20
2018-06-09T10:39:15.259Z,31.60
2018-06-09T10:41:44.151Z,24.77
2018-06-09T10:44:13.082Z,29.23
2018-06-09T10:46:42.013Z,34.30
2018-06-09T10:49:10.924Z,32.80
2018-06-09T10:51:39.857Z,30.70
2018-06-09T10:54:08.780Z,30.13
2018-06-09T10:56:37.714Z,30.00
2018-06-09T10:59:06.635Z,31.03
2018-06-09T11:01:35.524Z,31.10
2018-06-09T11:04:04.464Z,33.20
2018-06-09T11:06:33.376Z,32.00
2018-06-09T11:09:02.320Z,29.50
2018-06-09T11:11:31.234Z,34.07
2018-06-09T11:14:00.142Z,31.27
2018-06-09T11:16:29.065Z,34.30
2018-06-09T11:18:57.959Z,30.73
2018-06-09T11:21:26.921Z,37.10
2018-06-09T11:23:55.822Z,37.90
2018-06-09T11:26:24.740Z,35.03
2018-06-09T11:28:53.666Z,33.23
2018-06-09T11:31:22.578Z,34.10
2018-06-09T11:33:51.502Z,29.73
2018-06-09T11:36:20.400Z,26.93
2018-06-09T11:38:49.312Z,32.67
2018-06-09T11:41:18.254Z,39.67
2018-06-09T11:43:47.165Z,31.77
2018-06-09T11:46:16.096Z,32.17
2018-06-09T11:48:45.002Z,27.03
2018-06-09T11:51:13.918Z,28.37
2018-06-09T11:53:42.827Z,33.13
2018-06-09T11:56:11.738Z,36.37
2018-06-09T11:58:41.492Z,32.40
2018-06-09T12:01:10.373Z,32.67
2018-06-09T12:03:39.286Z,31.90
2018-06-09T12:06:08.219Z,24.93
2018-06-09T12:08:37.132Z,36.90
2018-06-09T12:11:06.071Z,29.63
2018-06-09T12:13:34.974Z,26.07
2018-06-09T12:16:04.749Z,26.23
2018-06-09T12:18:33.682Z,23.70
2018-06-09T12:21:02.594Z,26.23
2018-06-09T12:23:31.526Z,28.73
2018-06-09T12:26:00.461Z,32.10
2018-06-09T12:28:29.388Z,29.87
2018-06-09T12:30:58.306Z,28.37
2018-06-09T12:33:27.210Z,33.40
2018-06-09T12:35:56.154Z,29.30
2018-06-09T12:38:25.071Z,31.60
2018-06-09T12:40:53.975Z,32.00
2018-06-09T12:43:22.898Z,30.33
2018-06-09T12:45:51.833Z,32.67
2018-06-09T12:48:20.752Z,27.83
2018-06-09T12:50:49.666Z,29.73
2018-06-09T12:53:18.562Z,31.93
2018-06-09T12:55:47.475Z,26.83
2018-06-09T12:58:16.403Z,28.67
2018-06-09T13:00:45.335Z,34.93
2018-06-09T13:03:14.287Z,28.13
2018-06-09T13:05:43.224Z,25.13
2018-06-09T13:08:12.134Z,25.83
2018-06-09T13:10:41.042Z,22.40
2018-06-09T13:13:09.970Z,27.17
2018-06-09T13:15:38.874Z,31.07
2018-06-09T13:18:07.777Z,27.40
2018-06-09T13:20:36.689Z,22.40
2018-06-09T13:23:05.590Z,26.90
2018-06-09T13:25:34.516Z,36.90
2018-06-09T13:28:03.438Z,44.50
2018-06-09T13:30:32.738Z,29.30
2018-06-09T13:33:01.843Z,28.23
2018-06-09T13:35:30.777Z,35.97
2018-06-09T13:37:59.723Z,31.20
2018-06-09T13:40:28.679Z,33.43
2018-06-09T13:42:57.575Z,31.27
2018-06-09T13:45:26.517Z,32.57
2018-06-09T13:47:55.443Z,31.70
2018-06-09T13:50:24.364Z,36.07
2018-06-09T13:52:53.685Z,26.50
2018-06-09T13:55:22.636Z,26.80
2018-06-09T13:57:51.546Z,28.23
2018-06-09T14:00:20.476Z,36.43
2018-06-09T14:02:49.420Z,29.97
2018-06-09T14:05:18.327Z,26.70
2018-06-09T14:07:47.424Z,29.93
2018-06-09T14:10:16.349Z,34.57
2018-06-09T14:12:45.235Z,30.10
2018-06-09T14:15:14.153Z,32.77
2018-06-09T14:17:43.089Z,38.07
2018-06-09T14:20:12.000Z,32.50
2018-06-09T14:22:40.937Z,32.60
2018-06-09T14:25:09.874Z,29.57
2018-06-09T14:27:38.788Z,26.87
2018-06-09T14:30:07.689Z,25.77
2018-06-09T14:32:36.776Z,25.23
2018-06-09T14:35:05.666Z,35.97
2018-06-09T14:37:34.596Z,38.70
2018-06-09T14:40:03.550Z,38.73
2018-06-09T14:42:32.454Z,35.37
2018-06-09T14:45:01.831Z,35.73
2018-06-09T14:47:30.855Z,44.27
2018-06-09T14:49:59.841Z,43.03
2018-06-09T14:52:28.779Z,45.17
2018-06-09T14:54:57.825Z,46.87
2018-06-09T14:57:26.802Z,44.90
2018-06-09T14:59:55.748Z,53.67
2018-06-09T15:02:24.670Z,46.70
2018-06-09T15:04:53.670Z,47.67
2018-06-09T15:07:22.563Z,41.00
2018-06-09T15:09:51.512Z,39.70
2018-06-09T15:12:20.430Z,43.70
2018-06-09T15:14:49.338Z,44.57
2018-06-09T15:17:18.267Z,40.70
2018-06-09T15:19:47.167Z,38.87
2018-06-09T15:22:16.110Z,43.87
2018-06-09T15:24:45.042Z,44.07
2018-06-09T15:27:13.932Z,37.40
2018-06-09T15:29:42.855Z,39.27
2018-06-09T15:32:11.887Z,40.57
2018-06-09T15:34:40.869Z,41.53
2018-06-09T15:37:09.759Z,33.93
2018-06-09T15:39:38.659Z,36.20
2018-06-09T15:42:07.564Z,41.33
2018-06-09T15:44:36.471Z,38.97
2018-06-09T15:47:05.652Z,41.80
2018-06-09T15:49:34.566Z,37.90
2018-06-09T15:52:03.488Z,44.00
2018-06-09T15:54:32.457Z,37.33
2018-06-09T15:57:01.322Z,33.80
2018-06-09T15:59:30.252Z,31.70
2018-06-09T16:01:59.348Z,40.47
2018-06-09T16:04:28.281Z,43.47
2018-06-09T16:06:57.278Z,40.60
2018-06-09T16:09:26.198Z,37.27
2018-06-09T16:11:55.250Z,42.23
2018-06-09T16:14:27.501Z,35.13
2018-06-09T16:16:56.440Z,40.63
2018-06-09T16:19:25.370Z,39.80
2018-06-09T16:21:54.289Z,35.80
2018-06-09T16:24:23.226Z,37.30
2018-06-09T16:26:52.216Z,36.90
2018-06-09T16:29:21.450Z,37.17
2018-06-09T16:31:50.338Z,33.20
2018-06-09T16:34:19.240Z,36.03
2018-06-09T16:36:48.192Z,36.60
2018-06-09T16:39:18.139Z,34.23
2018-06-09T16:41:47.085Z,31.60
2018-06-09T16:44:16.046Z,32.30
2018-06-09T16:46:44.970Z,29.93
2018-06-09T16:49:13.927Z,33.33
2018-06-09T16:51:42.839Z,30.50
2018-06-09T16:54:11.777Z,30.87
2018-06-09T16:56:40.683Z,29.63
2018-06-09T16:59:09.606Z,31.27
2018-06-09T17:01:38.563Z,28.97
2018-06-09T17:04:07.614Z,26.97
2018-06-09T17:06:36.640Z,26.90
2018-06-09T17:09:08.219Z,36.63
2018-06-09T17:11:37.149Z,30.10
2018-06-09T17:14:06.088Z,26.37
2018-06-09T17:16:35.001Z,23.67
2018-06-09T17:19:03.922Z,23.93
2018-06-09T17:21:32.831Z,25.83
2018-06-09T17:24:01.738Z,27.53
2018-06-09T17:26:34.061Z,25.47
2018-06-09T17:29:02.989Z,27.77
2018-06-09T17:31:35.297Z,26.67
2018-06-09T17:34:04.249Z,25.93
2018-06-09T17:36:33.173Z,28.17
2018-06-09T17:39:02.076Z,24.83
2018-06-09T17:41:30.987Z,23.07
2018-06-09T17:43:59.959Z,23.27
2018-06-09T17:46:28.844Z,24.37
2018-06-09T17:48:57.804Z,23.33
2018-06-09T17:51:26.722Z,23.00
2018-06-09T17:53:55.662Z,23.20
2018-06-09T17:56:24.567Z,30.67
2018-06-09T17:58:53.459Z,29.30
2018-06-09T18:01:22.384Z,27.37
2018-06-09T18:03:51.331Z,23.90
2018-06-09T18:06:20.254Z,26.00
2018-06-09T18:08:49.166Z,23.23
2018-06-09T18:11:18.094Z,20.23
2018-06-09T18:13:47.036Z,23.87
2018-06-09T18:16:15.951Z,20.97
2018-06-09T18:18:44.875Z,22.47
2018-06-09T18:21:13.809Z,24.00
2018-06-09T18:23:42.735Z,22.67
2018-06-09T18:26:11.650Z,22.90
2018-06-09T18:28:40.554Z,21.87
2018-06-09T18:31:09.532Z,20.67
2018-06-09T18:33:38.483Z,22.20
2018-06-09T18:36:11.078Z,21.73
2018-06-09T18:38:40.358Z,24.43
2018-06-09T18:41:09.352Z,21.07
2018-06-09T18:43:38.829Z,20.70
2018-06-09T18:46:07.750Z,21.73
2018-06-09T18:48:36.674Z,23.03
2018-06-09T18:51:05.571Z,23.93
2018-06-09T18:53:34.531Z,19.47
2018-06-09T18:56:03.555Z,23.07
2018-06-09T18:58:32.483Z,18.23
2018-06-09T19:01:05.304Z,18.80
2018-06-09T19:03:34.230Z,23.67
2018-06-09T19:06:03.195Z,24.47
2018-06-09T19:08:32.122Z,20.50
2018-06-09T19:11:01.041Z,21.90
2018-06-09T19:13:29.970Z,21.87
2018-06-09T19:15:59.146Z,24.03
2018-06-09T19:18:28.050Z,22.23
2018-06-09T19:20:56.963Z,25.07
2018-06-09T19:23:25.897Z,24.30
2018-06-09T19:25:54.861Z,24.70
2018-06-09T19:28:23.801Z,24.70
2018-06-09T19:30:52.693Z,23.57
2018-06-09T19:33:21.666Z,22.57
2018-06-09T19:35:50.511Z,20.67
2018-06-09T19:38:19.475Z,20.70
2018-06-09T19:40:48.468Z,21.47
2018-06-09T19:43:17.328Z,21.10
2018-06-09T19:45:48.255Z,24.40
2018-06-09T19:48:17.211Z,23.87
2018-06-09T19:50:46.155Z,24.27
2018-06-09T19:53:15.073Z,23.80
2018-06-09T19:55:44.078Z,25.07
2018-06-09T19:58:13.009Z,22.80
2018-06-09T20:00:45.542Z,23.60
2018-06-09T20:03:14.538Z,22.90
2018-06-09T20:05:43.422Z,23.87
2018-06-09T20:08:12.363Z,23.47
2018-06-09T20:10:41.298Z,24.33
2018-06-09T20:13:10.244Z,24.47
2018-06-09T20:15:39.185Z,24.67
2018-06-09T20:18:08.097Z,26.33
2018-06-09T20:20:37.032Z,23.63
2018-06-09T20:23:06.073Z,23.40
2018-06-09T20:25:35.024Z,23.20
2018-06-09T20:28:07.713Z,24.63
2018-06-09T20:30:40.819Z,23.33
2018-06-09T20:33:09.770Z,24.30
2018-06-09T20:35:38.682Z,23.70
2018-06-09T20:38:07.611Z,24.37
2018-06-09T20:40:36.567Z,23.67
2018-06-09T20:43:05.476Z,23.37
2018-06-09T20:45:34.449Z,24.17
2018-06-09T20:48:03.412Z,23.17
2018-06-09T20:50:32.400Z,23.37
2018-06-09T20:53:04.750Z,24.90
2018-06-09T20:55:33.658Z,24.17
2018-06-09T20:58:02.747Z,25.83
2018-06-09T21:00:31.684Z,24.87
2018-06-09T21:03:00.606Z,26.67
2018-06-09T21:05:29.556Z,25.47
2018-06-09T21:07:58.480Z,25.57
2018-06-09T21:10:27.429Z,23.43
2018-06-09T21:12:56.338Z,19.63
2018-06-09T21:15:25.318Z,20.53
2018-06-09T21:17:54.242Z,21.40
2018-06-09T21:20:23.166Z,19.97
2018-06-09T21:22:52.124Z,19.87
2018-06-09T21:25:21.033Z,20.77
2018-06-09T21:27:55.294Z,23.77
2018-06-09T21:30:29.598Z,19.83
2018-06-09T21:33:03.831Z,18.60
2018-06-09T21:35:59.128Z,19.23
2018-06-09T21:38:28.159Z,21.03
2018-06-09T21:42:00.423Z,21.40
2018-06-09T21:44:34.704Z,19.87
2018-06-09T21:47:03.658Z,20.83
2018-06-09T21:49:32.720Z,21.10
2018-06-09T21:52:01.634Z,20.70
2018-06-09T21:54:30.588Z,17.73
2018-06-09T21:56:59.533Z,18.50
2018-06-09T21:59:28.492Z,20.53
2018-06-09T22:01:57.416Z,22.70
2018-06-09T22:04:26.442Z,20.03
2018-06-09T22:06:55.377Z,20.83
2018-06-09T22:09:24.267Z,21.27
2018-06-09T22:11:56.665Z,19.40
2018-06-09T22:14:25.676Z,18.53
2018-06-09T22:16:54.667Z,21.60
2018-06-09T22:19:23.653Z,20.23
2018-06-09T22:21:52.578Z,18.63
2018-06-09T22:24:21.615Z,19.43
2018-06-09T22:26:50.564Z,23.47
2018-06-09T22:29:19.872Z,20.03
2018-06-09T22:31:48.860Z,20.87
2018-06-09T22:34:17.843Z,18.03
2018-06-09T22:36:47.189Z,17.53
2018-06-09T22:39:16.111Z,17.47
2018-06-09T22:41:45.077Z,21.50
2018-06-09T22:44:13.934Z,20.17
2018-06-09T22:46:42.889Z,19.23
2018-06-09T22:49:11.804Z,20.37
2018-06-09T22:51:40.716Z,21.93
2018-06-09T22:54:09.663Z,20.07
2018-06-09T22:56:38.584Z,20.10
2018-06-09T22:59:07.596Z,19.80
2018-06-09T23:01:36.519Z,20.60
2018-06-09T23:04:05.459Z,17.37
2018-06-09T23:06:34.630Z,15.70
2018-06-09T23:09:03.677Z,18.77
2018-06-09T23:11:32.715Z,20.37
2018-06-09T23:14:01.680Z,16.67
2018-06-09T23:16:30.575Z,17.27
2018-06-09T23:18:59.514Z,18.87
2018-06-09T23:21:28.595Z,17.23
2018-06-09T23:23:57.490Z,19.83
2018-06-09T23:26:26.404Z,18.53
2018-06-09T23:28:55.303Z,14.57
2018-06-09T23:31:24.207Z,20.50
2018-06-09T23:33:53.119Z,17.70
2018-06-09T23:36:22.017Z,18.40
2018-06-09T23:38:50.935Z,17.67
2018-06-09T23:41:19.826Z,18.60
2018-06-09T23:43:48.728Z,20.23
2018-06-09T23:46:17.635Z,16.97
2018-06-09T23:48:46.535Z,18.77
2018-06-09T23:51:15.768Z,17.73
2018-06-09T23:53:44.982Z,16.40
2018-06-09T23:56:13.933Z,18.13
2018-06-09T23:58:42.807Z,19.77
